sensor_id;sensor_type;location;lat;lon;timestamp;P1;durP1;ratioP1;P2;durP2;ratioP2
48524;SDS011;34316;51.514;-0.178;2023-12-04T00:01:42;11.40;;;7.85;;
48524;SDS011;34316;51.514;-0.178;2023-12-04T00:03:48;10.75;;;7.13;;
48524;SDS011;34316;51.514;-0.178;2023-12-04T00:05:50;8.68;;;7.30;;
48524;SDS011;34316;51.514;-0.178;2023-12-04T00:07:51;11.65;;;7.55;;
48524;SDS011;34316;51.514;-0.178;2023-12-04T00:09:53;9.93;;;7.43;;
48524;SDS011;34316;51.514;-0.178;2023-12-04T00:11:55;10.80;;;7.55;;
48524;SDS011;34316;51.514;-0.178;2023-12-04T00:13:58;14.30;;;7.75;;
48524;SDS011;34316;51.514;-0.178;2023-12-04T00:16:00;11.73;;;8.40;;
48524;SDS011;34316;51.514;-0.178;2023-12-04T00:18:02;10.52;;;7.72;;
48524;SDS011;34316;51.514;-0.178;2023-12-04T00:20:04;10.77;;;8.35;;
48524;SDS011;34316;51.514;-0.178;2023-12-04T00:22:10;10.82;;;7.60;;
48524;SDS011;34316;51.514;-0.178;2023-12-04T00:24:13;10.07;;;8.02;;
48524;SDS011;34316;51.514;-0.178;2023-12-04T00:26:15;9.90;;;7.90;;
48524;SDS011;34316;51.514;-0.178;2023-12-04T00:28:16;10.80;;;7.82;;
48524;SDS011;34316;51.514;-0.178;2023-12-04T00:30:18;10.27;;;7.90;;
48524;SDS011;34316;51.514;-0.178;2023-12-04T00:32:20;10.65;;;8.15;;
48524;SDS011;34316;51.514;-0.178;2023-12-04T00:34:22;9.82;;;7.68;;
48524;SDS011;34316;51.514;-0.178;2023-12-04T00:36:25;11.82;;;7.55;;
48524;SDS011;34316;51.514;-0.178;2023-12-04T00:38:27;10.73;;;7.72;;
48524;SDS011;34316;51.514;-0.178;2023-12-04T00:40:30;10.75;;;7.50;;
48524;SDS011;34316;51.514;-0.178;2023-12-04T00:42:32;10.70;;;7.63;;
48524;SDS011;34316;51.514;-0.178;2023-12-04T00:44:34;9.98;;;8.05;;
48524;SDS011;34316;51.514;-0.178;2023-12-04T00:46:35;9.60;;;7.47;;
48524;SDS011;34316;51.514;-0.178;2023-12-04T00:48:37;10.80;;;8.40;;
48524;SDS011;34316;51.514;-0.178;2023-12-04T00:50:39;11.00;;;7.43;;
48524;SDS011;34316;51.514;-0.178;2023-12-04T00:52:41;10.43;;;7.95;;
48524;SDS011;34316;51.514;-0.178;2023-12-04T00:54:43;10.95;;;8.15;;
48524;SDS011;34316;51.514;-0.178;2023-12-04T00:56:45;11.60;;;8.13;;
48524;SDS011;34316;51.514;-0.178;2023-12-04T00:58:47;11.18;;;8.15;;
48524;SDS011;34316;51.514;-0.178;2023-12-04T01:00:49;11.70;;;8.05;;
48524;SDS011;34316;51.514;-0.178;2023-12-04T01:02:53;10.43;;;7.60;;
48524;SDS011;34316;51.514;-0.178;2023-12-04T01:04:55;13.23;;;9.10;;
48524;SDS011;34316;51.514;-0.178;2023-12-04T01:06:57;11.63;;;8.10;;
48524;SDS011;34316;51.514;-0.178;2023-12-04T01:08:59;11.10;;;8.13;;
48524;SDS011;34316;51.514;-0.178;2023-12-04T01:11:01;10.43;;;7.97;;
48524;SDS011;34316;51.514;-0.178;2023-12-04T01:13:03;10.80;;;7.93;;
48524;SDS011;34316;51.514;-0.178;2023-12-04T01:15:05;10.95;;;8.50;;
48524;SDS011;34316;51.514;-0.178;2023-12-04T01:17:08;10.85;;;7.82;;
48524;SDS011;34316;51.514;-0.178;2023-12-04T01:19:09;10.82;;;8.02;;
48524;SDS011;34316;51.514;-0.178;2023-12-04T01:21:11;9.98;;;7.85;;
48524;SDS011;34316;51.514;-0.178;2023-12-04T01:23:14;12.02;;;8.95;;
48524;SDS011;34316;51.514;-0.178;2023-12-04T01:25:15;13.60;;;9.32;;
48524;SDS011;34316;51.514;-0.178;2023-12-04T01:27:17;11.00;;;8.63;;
48524;SDS011;34316;51.514;-0.178;2023-12-04T01:29:19;10.80;;;8.32;;
48524;SDS011;34316;51.514;-0.178;2023-12-04T01:31:21;10.30;;;8.45;;
48524;SDS011;34316;51.514;-0.178;2023-12-04T01:33:23;12.88;;;8.07;;
48524;SDS011;34316;51.514;-0.178;2023-12-04T01:35:25;12.20;;;8.55;;
48524;SDS011;34316;51.514;-0.178;2023-12-04T01:37:28;12.10;;;7.95;;
48524;SDS011;34316;51.514;-0.178;2023-12-04T01:39:30;10.10;;;8.05;;
48524;SDS011;34316;51.514;-0.178;2023-12-04T01:41:32;10.40;;;7.80;;
48524;SDS011;34316;51.514;-0.178;2023-12-04T01:43:34;10.93;;;8.27;;
48524;SDS011;34316;51.514;-0.178;2023-12-04T01:45:36;10.27;;;8.10;;
48524;SDS011;34316;51.514;-0.178;2023-12-04T01:47:38;11.18;;;7.88;;
48524;SDS011;34316;51.514;-0.178;2023-12-04T01:49:40;9.90;;;7.20;;
48524;SDS011;34316;51.514;-0.178;2023-12-04T01:51:43;9.95;;;7.38;;
48524;SDS011;34316;51.514;-0.178;2023-12-04T01:53:45;10.05;;;7.68;;
48524;SDS011;34316;51.514;-0.178;2023-12-04T01:55:47;10.70;;;7.35;;
48524;SDS011;34316;51.514;-0.178;2023-12-04T01:57:50;10.98;;;7.60;;
48524;SDS011;34316;51.514;-0.178;2023-12-04T02:01:56;10.50;;;7.53;;
48524;SDS011;34316;51.514;-0.178;2023-12-04T02:03:58;10.05;;;7.47;;
48524;SDS011;34316;51.514;-0.178;2023-12-04T02:06:02;10.20;;;7.55;;
48524;SDS011;34316;51.514;-0.178;2023-12-04T02:08:06;10.60;;;7.68;;
48524;SDS011;34316;51.514;-0.178;2023-12-04T02:10:08;12.57;;;7.80;;
48524;SDS011;34316;51.514;-0.178;2023-12-04T02:12:11;11.55;;;8.57;;
48524;SDS011;34316;51.514;-0.178;2023-12-04T02:14:13;11.60;;;8.57;;
48524;SDS011;34316;51.514;-0.178;2023-12-04T02:16:15;10.55;;;7.68;;
48524;SDS011;34316;51.514;-0.178;2023-12-04T02:18:18;9.85;;;7.53;;
48524;SDS011;34316;51.514;-0.178;2023-12-04T02:20:20;11.05;;;8.73;;
48524;SDS011;34316;51.514;-0.178;2023-12-04T02:22:22;11.23;;;7.95;;
48524;SDS011;34316;51.514;-0.178;2023-12-04T02:24:24;11.75;;;9.00;;
48524;SDS011;34316;51.514;-0.178;2023-12-04T02:26:28;12.05;;;9.02;;
48524;SDS011;34316;51.514;-0.178;2023-12-04T02:29:00;10.88;;;8.32;;
48524;SDS011;34316;51.514;-0.178;2023-12-04T02:31:09;9.55;;;7.85;;
48524;SDS011;34316;51.514;-0.178;2023-12-04T02:33:12;10.93;;;7.78;;
48524;SDS011;34316;51.514;-0.178;2023-12-04T02:35:16;9.35;;;6.78;;
48524;SDS011;34316;51.514;-0.178;2023-12-04T02:37:22;10.80;;;7.78;;
48524;SDS011;34316;51.514;-0.178;2023-12-04T02:39:24;10.73;;;8.45;;
48524;SDS011;34316;51.514;-0.178;2023-12-04T02:41:27;10.50;;;7.75;;
48524;SDS011;34316;51.514;-0.178;2023-12-04T02:43:29;10.80;;;8.15;;
48524;SDS011;34316;51.514;-0.178;2023-12-04T02:45:31;10.23;;;7.60;;
48524;SDS011;34316;51.514;-0.178;2023-12-04T02:47:33;9.77;;;7.82;;
48524;SDS011;34316;51.514;-0.178;2023-12-04T02:49:35;11.77;;;7.45;;
48524;SDS011;34316;51.514;-0.178;2023-12-04T02:51:39;9.80;;;7.43;;
48524;SDS011;34316;51.514;-0.178;2023-12-04T02:53:42;12.70;;;6.90;;
48524;SDS011;34316;51.514;-0.178;2023-12-04T02:55:44;10.32;;;8.13;;
48524;SDS011;34316;51.514;-0.178;2023-12-04T02:57:46;10.52;;;8.15;;
48524;SDS011;34316;51.514;-0.178;2023-12-04T02:59:48;10.15;;;7.75;;
48524;SDS011;34316;51.514;-0.178;2023-12-04T03:01:50;10.73;;;7.70;;
48524;SDS011;34316;51.514;-0.178;2023-12-04T03:03:52;9.73;;;7.50;;
48524;SDS011;34316;51.514;-0.178;2023-12-04T03:05:54;10.40;;;7.72;;
48524;SDS011;34316;51.514;-0.178;2023-12-04T03:07:56;9.55;;;6.93;;
48524;SDS011;34316;51.514;-0.178;2023-12-04T03:09:58;12.57;;;8.60;;
48524;SDS011;34316;51.514;-0.178;2023-12-04T03:11:59;11.98;;;7.60;;
48524;SDS011;34316;51.514;-0.178;2023-12-04T03:14:01;10.05;;;7.43;;
48524;SDS011;34316;51.514;-0.178;2023-12-04T03:16:04;9.60;;;7.07;;
48524;SDS011;34316;51.514;-0.178;2023-12-04T03:18:06;10.13;;;7.75;;
48524;SDS011;34316;51.514;-0.178;2023-12-04T03:20:11;9.63;;;7.65;;
48524;SDS011;34316;51.514;-0.178;2023-12-04T03:22:13;11.15;;;7.72;;
48524;SDS011;34316;51.514;-0.178;2023-12-04T03:24:16;9.60;;;7.63;;
48524;SDS011;34316;51.514;-0.178;2023-12-04T03:26:17;11.70;;;8.20;;
48524;SDS011;34316;51.514;-0.178;2023-12-04T03:28:19;9.65;;;7.28;;
48524;SDS011;34316;51.514;-0.178;2023-12-04T03:30:21;10.05;;;7.55;;
48524;SDS011;34316;51.514;-0.178;2023-12-04T03:32:23;9.07;;;7.10;;
48524;SDS011;34316;51.514;-0.178;2023-12-04T03:34:25;10.15;;;7.28;;
48524;SDS011;34316;51.514;-0.178;2023-12-04T03:36:27;9.43;;;7.70;;
48524;SDS011;34316;51.514;-0.178;2023-12-04T03:38:29;12.35;;;8.00;;
48524;SDS011;34316;51.514;-0.178;2023-12-04T03:40:31;10.63;;;7.45;;
48524;SDS011;34316;51.514;-0.178;2023-12-04T03:42:34;10.30;;;7.30;;
48524;SDS011;34316;51.514;-0.178;2023-12-04T03:44:36;9.23;;;7.35;;
48524;SDS011;34316;51.514;-0.178;2023-12-04T03:46:38;10.13;;;7.65;;
48524;SDS011;34316;51.514;-0.178;2023-12-04T03:48:40;11.02;;;8.27;;
48524;SDS011;34316;51.514;-0.178;2023-12-04T03:50:42;11.20;;;7.53;;
48524;SDS011;34316;51.514;-0.178;2023-12-04T03:52:44;10.55;;;7.72;;
48524;SDS011;34316;51.514;-0.178;2023-12-04T03:54:46;10.68;;;8.05;;
48524;SDS011;34316;51.514;-0.178;2023-12-04T03:56:47;12.02;;;8.20;;
48524;SDS011;34316;51.514;-0.178;2023-12-04T03:58:49;10.60;;;7.95;;
48524;SDS011;34316;51.514;-0.178;2023-12-04T04:00:51;10.00;;;8.10;;
48524;SDS011;34316;51.514;-0.178;2023-12-04T04:02:53;10.07;;;7.30;;
48524;SDS011;34316;51.514;-0.178;2023-12-04T04:04:56;14.57;;;7.80;;
48524;SDS011;34316;51.514;-0.178;2023-12-04T04:06:58;11.02;;;7.68;;
48524;SDS011;34316;51.514;-0.178;2023-12-04T04:09:00;10.70;;;7.82;;
48524;SDS011;34316;51.514;-0.178;2023-12-04T04:11:02;8.15;;;6.85;;
48524;SDS011;34316;51.514;-0.178;2023-12-04T04:13:04;11.25;;;7.15;;
48524;SDS011;34316;51.514;-0.178;2023-12-04T04:15:06;9.65;;;7.18;;
48524;SDS011;34316;51.514;-0.178;2023-12-04T04:17:08;11.52;;;7.57;;
48524;SDS011;34316;51.514;-0.178;2023-12-04T04:19:10;10.38;;;7.13;;
48524;SDS011;34316;51.514;-0.178;2023-12-04T04:21:14;11.30;;;7.30;;
48524;SDS011;34316;51.514;-0.178;2023-12-04T04:23:16;10.80;;;7.82;;
48524;SDS011;34316;51.514;-0.178;2023-12-04T04:25:18;12.95;;;7.72;;
48524;SDS011;34316;51.514;-0.178;2023-12-04T04:27:23;10.77;;;7.53;;
48524;SDS011;34316;51.514;-0.178;2023-12-04T04:29:24;12.32;;;9.10;;
48524;SDS011;34316;51.514;-0.178;2023-12-04T04:31:26;9.65;;;7.53;;
48524;SDS011;34316;51.514;-0.178;2023-12-04T04:33:28;10.25;;;8.23;;
48524;SDS011;34316;51.514;-0.178;2023-12-04T04:35:30;12.57;;;8.18;;
48524;SDS011;34316;51.514;-0.178;2023-12-04T04:37:32;12.77;;;7.63;;
48524;SDS011;34316;51.514;-0.178;2023-12-04T04:39:34;14.50;;;8.38;;
48524;SDS011;34316;51.514;-0.178;2023-12-04T04:41:36;12.05;;;8.60;;
48524;SDS011;34316;51.514;-0.178;2023-12-04T04:43:37;11.70;;;8.43;;
48524;SDS011;34316;51.514;-0.178;2023-12-04T04:45:39;11.80;;;8.80;;
48524;SDS011;34316;51.514;-0.178;2023-12-04T04:47:41;11.52;;;9.20;;
48524;SDS011;34316;51.514;-0.178;2023-12-04T04:49:43;12.00;;;8.43;;
48524;SDS011;34316;51.514;-0.178;2023-12-04T04:51:45;14.75;;;9.63;;
48524;SDS011;34316;51.514;-0.178;2023-12-04T04:53:47;13.65;;;9.23;;
48524;SDS011;34316;51.514;-0.178;2023-12-04T04:55:50;13.80;;;9.45;;
48524;SDS011;34316;51.514;-0.178;2023-12-04T04:57:52;12.35;;;8.90;;
48524;SDS011;34316;51.514;-0.178;2023-12-04T04:59:54;14.50;;;9.18;;
48524;SDS011;34316;51.514;-0.178;2023-12-04T05:01:56;11.30;;;8.20;;
48524;SDS011;34316;51.514;-0.178;2023-12-04T05:03:58;11.27;;;8.50;;
48524;SDS011;34316;51.514;-0.178;2023-12-04T05:06:00;13.23;;;8.80;;
48524;SDS011;34316;51.514;-0.178;2023-12-04T05:08:02;12.38;;;8.45;;
48524;SDS011;34316;51.514;-0.178;2023-12-04T05:10:04;12.40;;;8.55;;
48524;SDS011;34316;51.514;-0.178;2023-12-04T05:12:09;13.60;;;8.10;;
48524;SDS011;34316;51.514;-0.178;2023-12-04T05:14:11;12.15;;;8.40;;
48524;SDS011;34316;51.514;-0.178;2023-12-04T05:16:13;13.00;;;9.40;;
48524;SDS011;34316;51.514;-0.178;2023-12-04T05:18:15;13.68;;;9.25;;
48524;SDS011;34316;51.514;-0.178;2023-12-04T05:20:17;15.38;;;10.07;;
48524;SDS011;34316;51.514;-0.178;2023-12-04T05:22:19;13.80;;;10.30;;
48524;SDS011;34316;51.514;-0.178;2023-12-04T05:24:21;16.45;;;9.88;;
48524;SDS011;34316;51.514;-0.178;2023-12-04T05:26:23;12.80;;;9.25;;
48524;SDS011;34316;51.514;-0.178;2023-12-04T05:28:25;12.32;;;8.70;;
48524;SDS011;34316;51.514;-0.178;2023-12-04T05:30:27;14.18;;;8.18;;
48524;SDS011;34316;51.514;-0.178;2023-12-04T05:32:29;10.75;;;8.40;;
48524;SDS011;34316;51.514;-0.178;2023-12-04T05:34:31;11.93;;;9.25;;
48524;SDS011;34316;51.514;-0.178;2023-12-04T05:36:33;10.90;;;8.80;;
48524;SDS011;34316;51.514;-0.178;2023-12-04T05:38:35;11.10;;;8.50;;
48524;SDS011;34316;51.514;-0.178;2023-12-04T05:40:37;13.75;;;8.98;;
48524;SDS011;34316;51.514;-0.178;2023-12-04T05:42:39;12.05;;;9.10;;
48524;SDS011;34316;51.514;-0.178;2023-12-04T05:44:40;12.15;;;8.50;;
48524;SDS011;34316;51.514;-0.178;2023-12-04T05:46:42;12.68;;;8.88;;
48524;SDS011;34316;51.514;-0.178;2023-12-04T05:48:44;13.07;;;8.85;;
48524;SDS011;34316;51.514;-0.178;2023-12-04T05:50:46;12.35;;;8.90;;
48524;SDS011;34316;51.514;-0.178;2023-12-04T05:52:48;13.45;;;9.50;;
48524;SDS011;34316;51.514;-0.178;2023-12-04T05:54:50;13.27;;;8.52;;
48524;SDS011;34316;51.514;-0.178;2023-12-04T05:56:52;13.02;;;9.48;;
48524;SDS011;34316;51.514;-0.178;2023-12-04T05:58:54;12.38;;;8.85;;
48524;SDS011;34316;51.514;-0.178;2023-12-04T06:00:57;13.50;;;9.18;;
48524;SDS011;34316;51.514;-0.178;2023-12-04T06:02:59;11.65;;;9.55;;
48524;SDS011;34316;51.514;-0.178;2023-12-04T06:05:01;12.73;;;9.00;;
48524;SDS011;34316;51.514;-0.178;2023-12-04T06:07:03;13.20;;;9.30;;
48524;SDS011;34316;51.514;-0.178;2023-12-04T06:09:05;12.52;;;8.77;;
48524;SDS011;34316;51.514;-0.178;2023-12-04T06:11:07;11.45;;;8.80;;
48524;SDS011;34316;51.514;-0.178;2023-12-04T06:13:09;11.35;;;9.23;;
48524;SDS011;34316;51.514;-0.178;2023-12-04T06:15:11;13.55;;;9.95;;
48524;SDS011;34316;51.514;-0.178;2023-12-04T06:17:13;13.98;;;8.75;;
48524;SDS011;34316;51.514;-0.178;2023-12-04T06:19:15;12.20;;;9.30;;
48524;SDS011;34316;51.514;-0.178;2023-12-04T06:21:18;13.93;;;8.80;;
48524;SDS011;34316;51.514;-0.178;2023-12-04T06:23:20;13.32;;;9.40;;
48524;SDS011;34316;51.514;-0.178;2023-12-04T06:25:22;17.83;;;9.70;;
48524;SDS011;34316;51.514;-0.178;2023-12-04T06:27:25;16.85;;;11.05;;
48524;SDS011;34316;51.514;-0.178;2023-12-04T06:29:27;16.15;;;11.13;;
48524;SDS011;34316;51.514;-0.178;2023-12-04T06:31:29;13.43;;;9.60;;
48524;SDS011;34316;51.514;-0.178;2023-12-04T06:33:31;16.20;;;10.18;;
48524;SDS011;34316;51.514;-0.178;2023-12-04T06:35:33;15.00;;;10.25;;
48524;SDS011;34316;51.514;-0.178;2023-12-04T06:37:36;15.80;;;10.43;;
48524;SDS011;34316;51.514;-0.178;2023-12-04T06:39:40;14.98;;;10.32;;
48524;SDS011;34316;51.514;-0.178;2023-12-04T06:41:43;13.15;;;9.93;;
48524;SDS011;34316;51.514;-0.178;2023-12-04T06:43:45;15.23;;;10.45;;
48524;SDS011;34316;51.514;-0.178;2023-12-04T06:45:51;15.13;;;10.63;;
48524;SDS011;34316;51.514;-0.178;2023-12-04T06:47:53;14.95;;;10.55;;
48524;SDS011;34316;51.514;-0.178;2023-12-04T06:49:55;14.27;;;10.10;;
48524;SDS011;34316;51.514;-0.178;2023-12-04T06:52:00;18.75;;;11.05;;
48524;SDS011;34316;51.514;-0.178;2023-12-04T06:54:02;16.45;;;10.60;;
48524;SDS011;34316;51.514;-0.178;2023-12-04T06:56:04;13.05;;;9.68;;
48524;SDS011;34316;51.514;-0.178;2023-12-04T06:58:06;14.30;;;9.77;;
48524;SDS011;34316;51.514;-0.178;2023-12-04T07:00:09;13.02;;;9.18;;
48524;SDS011;34316;51.514;-0.178;2023-12-04T07:02:22;15.93;;;11.23;;
48524;SDS011;34316;51.514;-0.178;2023-12-04T07:04:25;13.95;;;10.32;;
48524;SDS011;34316;51.514;-0.178;2023-12-04T07:06:27;13.10;;;9.40;;
48524;SDS011;34316;51.514;-0.178;2023-12-04T07:08:29;13.52;;;10.25;;
48524;SDS011;34316;51.514;-0.178;2023-12-04T07:10:31;14.18;;;10.18;;
48524;SDS011;34316;51.514;-0.178;2023-12-04T07:12:38;18.85;;;10.55;;
48524;SDS011;34316;51.514;-0.178;2023-12-04T07:14:41;14.02;;;10.38;;
48524;SDS011;34316;51.514;-0.178;2023-12-04T07:16:43;13.77;;;9.13;;
48524;SDS011;34316;51.514;-0.178;2023-12-04T07:18:45;13.93;;;9.05;;
48524;SDS011;34316;51.514;-0.178;2023-12-04T07:20:48;12.80;;;9.48;;
48524;SDS011;34316;51.514;-0.178;2023-12-04T07:22:49;13.80;;;9.45;;
48524;SDS011;34316;51.514;-0.178;2023-12-04T07:24:51;15.15;;;9.93;;
48524;SDS011;34316;51.514;-0.178;2023-12-04T07:26:53;13.65;;;10.15;;
48524;SDS011;34316;51.514;-0.178;2023-12-04T07:28:55;14.98;;;9.63;;
48524;SDS011;34316;51.514;-0.178;2023-12-04T07:30:57;13.23;;;9.10;;
48524;SDS011;34316;51.514;-0.178;2023-12-04T07:32:59;11.57;;;8.77;;
48524;SDS011;34316;51.514;-0.178;2023-12-04T07:35:01;13.20;;;8.88;;
48524;SDS011;34316;51.514;-0.178;2023-12-04T07:37:03;11.48;;;8.82;;
48524;SDS011;34316;51.514;-0.178;2023-12-04T07:39:05;17.55;;;10.90;;
48524;SDS011;34316;51.514;-0.178;2023-12-04T07:41:08;15.33;;;9.37;;
48524;SDS011;34316;51.514;-0.178;2023-12-04T07:43:10;17.75;;;11.15;;
48524;SDS011;34316;51.514;-0.178;2023-12-04T07:45:12;13.07;;;8.50;;
48524;SDS011;34316;51.514;-0.178;2023-12-04T07:47:14;11.48;;;7.97;;
48524;SDS011;34316;51.514;-0.178;2023-12-04T07:49:19;11.90;;;8.60;;
48524;SDS011;34316;51.514;-0.178;2023-12-04T07:51:21;10.85;;;8.57;;
48524;SDS011;34316;51.514;-0.178;2023-12-04T07:53:23;15.40;;;9.20;;
48524;SDS011;34316;51.514;-0.178;2023-12-04T07:55:25;12.02;;;8.35;;
48524;SDS011;34316;51.514;-0.178;2023-12-04T07:57:27;12.40;;;8.85;;
48524;SDS011;34316;51.514;-0.178;2023-12-04T07:59:29;12.10;;;7.93;;
48524;SDS011;34316;51.514;-0.178;2023-12-04T08:01:31;13.73;;;8.70;;
48524;SDS011;34316;51.514;-0.178;2023-12-04T08:03:33;12.45;;;9.52;;
48524;SDS011;34316;51.514;-0.178;2023-12-04T08:05:35;11.93;;;8.23;;
48524;SDS011;34316;51.514;-0.178;2023-12-04T08:07:36;15.40;;;8.43;;
48524;SDS011;34316;51.514;-0.178;2023-12-04T08:09:38;12.68;;;7.55;;
48524;SDS011;34316;51.514;-0.178;2023-12-04T08:11:41;13.48;;;8.70;;
48524;SDS011;34316;51.514;-0.178;2023-12-04T08:13:42;14.02;;;8.70;;
48524;SDS011;34316;51.514;-0.178;2023-12-04T08:15:44;9.88;;;7.40;;
48524;SDS011;34316;51.514;-0.178;2023-12-04T08:17:46;8.40;;;6.38;;
48524;SDS011;34316;51.514;-0.178;2023-12-04T08:19:48;13.45;;;8.23;;
48524;SDS011;34316;51.514;-0.178;2023-12-04T08:21:53;11.05;;;6.68;;
48524;SDS011;34316;51.514;-0.178;2023-12-04T08:23:56;7.88;;;5.50;;
48524;SDS011;34316;51.514;-0.178;2023-12-04T08:26:01;8.23;;;5.43;;
48524;SDS011;34316;51.514;-0.178;2023-12-04T08:28:04;7.88;;;5.70;;
48524;SDS011;34316;51.514;-0.178;2023-12-04T08:30:07;8.95;;;5.90;;
48524;SDS011;34316;51.514;-0.178;2023-12-04T08:32:09;8.95;;;6.35;;
48524;SDS011;34316;51.514;-0.178;2023-12-04T08:34:11;8.07;;;6.00;;
48524;SDS011;34316;51.514;-0.178;2023-12-04T08:36:13;15.48;;;6.03;;
48524;SDS011;34316;51.514;-0.178;2023-12-04T08:38:15;6.72;;;5.18;;
48524;SDS011;34316;51.514;-0.178;2023-12-04T08:40:17;9.13;;;5.53;;
48524;SDS011;34316;51.514;-0.178;2023-12-04T08:42:19;8.80;;;6.05;;
48524;SDS011;34316;51.514;-0.178;2023-12-04T08:44:24;14.38;;;5.97;;
48524;SDS011;34316;51.514;-0.178;2023-12-04T08:46:26;7.50;;;5.40;;
48524;SDS011;34316;51.514;-0.178;2023-12-04T08:48:29;11.07;;;5.63;;
48524;SDS011;34316;51.514;-0.178;2023-12-04T08:50:31;7.55;;;6.07;;
48524;SDS011;34316;51.514;-0.178;2023-12-04T08:52:33;6.75;;;5.43;;
48524;SDS011;34316;51.514;-0.178;2023-12-04T08:54:35;6.20;;;5.05;;
48524;SDS011;34316;51.514;-0.178;2023-12-04T08:56:41;12.02;;;7.05;;
48524;SDS011;34316;51.514;-0.178;2023-12-04T08:58:43;11.23;;;6.95;;
48524;SDS011;34316;51.514;-0.178;2023-12-04T09:00:45;9.98;;;6.35;;
48524;SDS011;34316;51.514;-0.178;2023-12-04T09:02:47;10.63;;;5.55;;
48524;SDS011;34316;51.514;-0.178;2023-12-04T09:04:59;14.70;;;8.23;;
48524;SDS011;34316;51.514;-0.178;2023-12-04T09:07:01;12.02;;;6.32;;
48524;SDS011;34316;51.514;-0.178;2023-12-04T09:09:07;9.90;;;7.00;;
48524;SDS011;34316;51.514;-0.178;2023-12-04T09:11:14;8.90;;;6.70;;
48524;SDS011;34316;51.514;-0.178;2023-12-04T09:13:24;14.63;;;10.10;;
48524;SDS011;34316;51.514;-0.178;2023-12-04T09:15:26;11.98;;;7.93;;
48524;SDS011;34316;51.514;-0.178;2023-12-04T09:17:28;10.80;;;6.82;;
48524;SDS011;34316;51.514;-0.178;2023-12-04T09:19:39;7.60;;;4.88;;
48524;SDS011;34316;51.514;-0.178;2023-12-04T09:21:41;9.05;;;5.88;;
48524;SDS011;34316;51.514;-0.178;2023-12-04T09:23:45;7.10;;;5.03;;
48524;SDS011;34316;51.514;-0.178;2023-12-04T09:25:51;10.20;;;6.97;;
48524;SDS011;34316;51.514;-0.178;2023-12-04T09:27:53;15.75;;;8.45;;
48524;SDS011;34316;51.514;-0.178;2023-12-04T09:29:55;10.45;;;6.85;;
48524;SDS011;34316;51.514;-0.178;2023-12-04T09:31:57;10.02;;;6.45;;
48524;SDS011;34316;51.514;-0.178;2023-12-04T09:33:59;11.00;;;6.47;;
48524;SDS011;34316;51.514;-0.178;2023-12-04T09:36:01;10.70;;;6.40;;
48524;SDS011;34316;51.514;-0.178;2023-12-04T09:38:03;8.90;;;5.75;;
48524;SDS011;34316;51.514;-0.178;2023-12-04T09:40:05;8.82;;;5.80;;
48524;SDS011;34316;51.514;-0.178;2023-12-04T09:42:09;9.77;;;5.93;;
48524;SDS011;34316;51.514;-0.178;2023-12-04T09:44:12;7.68;;;5.45;;
48524;SDS011;34316;51.514;-0.178;2023-12-04T09:46:14;8.82;;;6.72;;
48524;SDS011;34316;51.514;-0.178;2023-12-04T09:48:17;7.85;;;5.50;;
48524;SDS011;34316;51.514;-0.178;2023-12-04T09:50:20;9.13;;;6.30;;
48524;SDS011;34316;51.514;-0.178;2023-12-04T09:52:24;9.20;;;5.50;;
48524;SDS011;34316;51.514;-0.178;2023-12-04T09:54:28;9.07;;;6.72;;
48524;SDS011;34316;51.514;-0.178;2023-12-04T09:56:32;7.47;;;5.30;;
48524;SDS011;34316;51.514;-0.178;2023-12-04T09:58:34;8.07;;;6.13;;
48524;SDS011;34316;51.514;-0.178;2023-12-04T10:00:40;8.70;;;6.10;;
48524;SDS011;34316;51.514;-0.178;2023-12-04T10:02:43;9.52;;;6.88;;
48524;SDS011;34316;51.514;-0.178;2023-12-04T10:04:46;10.60;;;7.45;;
48524;SDS011;34316;51.514;-0.178;2023-12-04T10:06:51;10.07;;;5.47;;
48524;SDS011;34316;51.514;-0.178;2023-12-04T10:08:54;9.10;;;5.50;;
48524;SDS011;34316;51.514;-0.178;2023-12-04T10:10:58;11.07;;;6.30;;
48524;SDS011;34316;51.514;-0.178;2023-12-04T10:13:02;9.45;;;6.22;;
48524;SDS011;34316;51.514;-0.178;2023-12-04T10:17:14;8.95;;;7.05;;
48524;SDS011;34316;51.514;-0.178;2023-12-04T10:21:31;7.47;;;5.38;;
48524;SDS011;34316;51.514;-0.178;2023-12-04T10:23:43;9.02;;;5.65;;
48524;SDS011;34316;51.514;-0.178;2023-12-04T10:25:46;7.53;;;5.85;;
48524;SDS011;34316;51.514;-0.178;2023-12-04T10:27:51;9.80;;;6.75;;
48524;SDS011;34316;51.514;-0.178;2023-12-04T10:29:56;8.60;;;6.10;;
48524;SDS011;34316;51.514;-0.178;2023-12-04T10:31:59;12.77;;;7.93;;
48524;SDS011;34316;51.514;-0.178;2023-12-04T10:34:04;9.43;;;6.43;;
48524;SDS011;34316;51.514;-0.178;2023-12-04T10:36:11;11.98;;;6.63;;
48524;SDS011;34316;51.514;-0.178;2023-12-04T10:38:13;7.10;;;5.90;;
48524;SDS011;34316;51.514;-0.178;2023-12-04T10:40:24;10.05;;;6.20;;
48524;SDS011;34316;51.514;-0.178;2023-12-04T10:42:28;10.40;;;6.45;;
48524;SDS011;34316;51.514;-0.178;2023-12-04T10:44:32;9.98;;;6.35;;
48524;SDS011;34316;51.514;-0.178;2023-12-04T10:46:35;9.52;;;6.35;;
48524;SDS011;34316;51.514;-0.178;2023-12-04T10:48:37;9.90;;;6.10;;
48524;SDS011;34316;51.514;-0.178;2023-12-04T10:50:40;8.32;;;5.90;;
48524;SDS011;34316;51.514;-0.178;2023-12-04T10:52:43;9.07;;;6.93;;
48524;SDS011;34316;51.514;-0.178;2023-12-04T10:54:49;11.80;;;7.75;;
48524;SDS011;34316;51.514;-0.178;2023-12-04T10:56:52;8.23;;;6.25;;
48524;SDS011;34316;51.514;-0.178;2023-12-04T10:58:55;7.45;;;5.85;;
48524;SDS011;34316;51.514;-0.178;2023-12-04T11:00:59;8.45;;;6.43;;
48524;SDS011;34316;51.514;-0.178;2023-12-04T11:03:09;10.18;;;6.63;;
48524;SDS011;34316;51.514;-0.178;2023-12-04T11:05:15;7.78;;;5.93;;
48524;SDS011;34316;51.514;-0.178;2023-12-04T11:07:23;8.60;;;6.65;;
48524;SDS011;34316;51.514;-0.178;2023-12-04T11:09:26;9.68;;;5.95;;
48524;SDS011;34316;51.514;-0.178;2023-12-04T11:11:30;7.80;;;6.90;;
48524;SDS011;34316;51.514;-0.178;2023-12-04T11:13:35;8.63;;;6.25;;
48524;SDS011;34316;51.514;-0.178;2023-12-04T11:15:39;9.25;;;6.50;;
48524;SDS011;34316;51.514;-0.178;2023-12-04T11:17:42;10.02;;;6.28;;
48524;SDS011;34316;51.514;-0.178;2023-12-04T11:19:55;10.43;;;6.82;;
48524;SDS011;34316;51.514;-0.178;2023-12-04T11:22:00;12.25;;;6.80;;
48524;SDS011;34316;51.514;-0.178;2023-12-04T11:24:03;11.18;;;6.55;;
48524;SDS011;34316;51.514;-0.178;2023-12-04T11:26:07;11.02;;;6.45;;
48524;SDS011;34316;51.514;-0.178;2023-12-04T11:28:10;9.57;;;5.87;;
48524;SDS011;34316;51.514;-0.178;2023-12-04T11:30:12;9.23;;;5.65;;
48524;SDS011;34316;51.514;-0.178;2023-12-04T11:32:15;8.48;;;5.35;;
48524;SDS011;34316;51.514;-0.178;2023-12-04T11:34:20;8.90;;;5.97;;
48524;SDS011;34316;51.514;-0.178;2023-12-04T11:36:22;8.65;;;6.43;;
48524;SDS011;34316;51.514;-0.178;2023-12-04T11:38:24;7.38;;;5.57;;
48524;SDS011;34316;51.514;-0.178;2023-12-04T11:40:27;11.07;;;6.53;;
48524;SDS011;34316;51.514;-0.178;2023-12-04T11:42:30;8.55;;;6.57;;
48524;SDS011;34316;51.514;-0.178;2023-12-04T11:44:32;12.32;;;6.60;;
48524;SDS011;34316;51.514;-0.178;2023-12-04T11:46:35;8.15;;;5.90;;
48524;SDS011;34316;51.514;-0.178;2023-12-04T11:48:37;7.70;;;5.95;;
48524;SDS011;34316;51.514;-0.178;2023-12-04T11:50:39;7.80;;;5.80;;
48524;SDS011;34316;51.514;-0.178;2023-12-04T11:52:42;6.88;;;5.55;;
48524;SDS011;34316;51.514;-0.178;2023-12-04T11:55:05;9.07;;;5.80;;
48524;SDS011;34316;51.514;-0.178;2023-12-04T11:59:10;11.38;;;7.00;;
48524;SDS011;34316;51.514;-0.178;2023-12-04T12:01:16;8.03;;;6.07;;
48524;SDS011;34316;51.514;-0.178;2023-12-04T12:03:19;10.98;;;7.05;;
48524;SDS011;34316;51.514;-0.178;2023-12-04T12:05:24;9.77;;;5.95;;
48524;SDS011;34316;51.514;-0.178;2023-12-04T12:07:28;13.77;;;7.93;;
48524;SDS011;34316;51.514;-0.178;2023-12-04T12:09:30;11.43;;;7.50;;